createdAt,value
2019-05-17T10:30:40.094Z,47.20
2019-05-17T15:25:18.977Z,53.50
2019-05-17T15:30:23.133Z,56.00
2019-05-17T15:35:27.274Z,55.40
2019-05-17T15:40:31.393Z,55.00
2019-05-17T15:45:35.524Z,54.70
2019-05-17T15:50:39.657Z,55.10
2019-05-17T15:55:43.789Z,54.30
2019-05-17T16:00:47.909Z,54.30
2019-05-17T16:05:52.037Z,54.00
2019-05-17T16:10:56.161Z,53.90
2019-05-17T16:16:00.293Z,53.90
2019-05-17T16:21:04.490Z,53.90
2019-05-17T16:26:08.599Z,54.10
2019-05-17T16:31:12.732Z,54.20
2019-05-17T16:36:16.860Z,54.30
2019-05-17T16:41:20.979Z,54.30
2019-05-17T16:46:25.113Z,54.40
2019-05-17T16:51:29.307Z,54.40
2019-05-17T16:56:33.428Z,54.40
2019-05-17T17:01:37.583Z,54.40
2019-05-17T17:06:41.714Z,54.40
2019-05-17T17:11:45.898Z,54.30
2019-05-17T17:16:50.004Z,54.40
2019-05-17T17:21:54.135Z,54.30
2019-05-17T17:26:58.267Z,54.10
2019-05-17T17:32:02.394Z,53.90
2019-05-17T17:37:06.527Z,54.00
2019-05-17T17:42:10.656Z,54.10
2019-05-17T17:47:14.786Z,54.10
2019-05-17T17:52:18.911Z,54.20
2019-05-17T17:57:23.043Z,54.60
2019-05-17T18:02:27.164Z,55.30
2019-05-17T18:07:31.304Z,56.00
2019-05-17T18:12:35.428Z,56.50
2019-05-17T18:17:39.711Z,56.70
2019-05-17T18:22:43.964Z,56.70
2019-05-17T18:27:48.128Z,56.90
2019-05-17T18:32:52.247Z,56.90
2019-05-17T18:37:56.370Z,55.80
2019-05-17T18:43:00.496Z,55.50
2019-05-17T18:48:04.624Z,56.00
2019-05-17T18:53:16.528Z,56.10
2019-05-17T18:58:14.683Z,55.80
2019-05-17T19:03:18.809Z,56.20
2019-05-17T19:08:22.946Z,56.40
2019-05-17T19:13:27.078Z,56.40
2019-05-17T19:18:31.195Z,55.90
2019-05-17T19:23:35.323Z,55.50
2019-05-17T19:28:39.447Z,55.40
2019-05-17T19:33:43.567Z,55.50
2019-05-17T19:38:47.695Z,55.50
2019-05-17T19:43:51.826Z,55.80
2019-05-17T19:48:55.963Z,55.80
2019-05-17T19:54:00.078Z,55.90
2019-05-17T19:59:04.204Z,56.20
2019-05-17T20:04:08.334Z,56.50
2019-05-17T20:09:12.454Z,56.60
2019-05-17T20:14:16.583Z,56.60
2019-05-17T20:19:20.718Z,56.70
2019-05-17T20:24:24.899Z,56.80
2019-05-17T20:29:29.021Z,56.80
2019-05-17T20:34:33.143Z,56.80
2019-05-17T20:39:37.273Z,56.70
2019-05-17T20:44:41.387Z,56.60
2019-05-17T20:49:45.516Z,56.40
2019-05-17T20:54:49.808Z,56.30
2019-05-17T20:59:53.940Z,56.30
2019-05-17T21:04:58.079Z,56.10
2019-05-17T21:10:02.198Z,56.30
2019-05-17T21:15:07.956Z,56.20
2019-05-17T21:20:12.092Z,56.70
2019-05-17T21:25:16.489Z,56.70
2019-05-17T21:30:20.615Z,56.70
2019-05-17T21:35:24.743Z,56.70
2019-05-17T21:40:28.872Z,56.80
2019-05-17T21:45:32.992Z,57.00
2019-05-17T21:50:37.120Z,57.20
2019-05-17T21:55:41.250Z,57.50
2019-05-17T22:00:53.896Z,57.70
2019-05-17T22:05:58.036Z,57.70
2019-05-17T22:11:02.179Z,57.80
2019-05-17T22:16:18.614Z,57.90
2019-05-17T22:21:12.155Z,57.90
2019-05-17T22:26:16.281Z,58.10
2019-05-17T22:31:20.415Z,58.10
2019-05-17T22:36:24.540Z,58.10
2019-05-17T22:41:28.669Z,58.30
2019-05-17T22:46:36.228Z,58.50
2019-05-17T22:51:38.657Z,58.70
2019-05-17T22:56:42.775Z,58.70
2019-05-17T23:01:46.906Z,58.80
2019-05-17T23:06:51.034Z,59.00
2019-05-17T23:11:55.162Z,59.10
2019-05-17T23:16:59.288Z,59.40
2019-05-17T23:22:03.430Z,59.70
2019-05-17T23:27:07.547Z,59.80
2019-05-17T23:32:11.682Z,59.70
2019-05-17T23:37:15.805Z,59.60
2019-05-17T23:42:19.943Z,59.50
2019-05-17T23:47:24.071Z,59.30
2019-05-17T23:52:28.202Z,59.30
2019-05-17T23:57:32.325Z,59.00
